Auberry, CA (93602)

8:44 PM PDT on July 30, 2015 (GMT -0700)
Burrough Valley - North Side | | Change Station
CLOSE
Current Station
Personal Weather Station
Location: Tollhouse, CA
Elevation: 2077 ft
Nearby Weather Stations

Elev 2077 ft 36.99 °N, 119.37 °W | Updated 13 minutes ago

Partly Cloudy
Partly Cloudy
88.7 °F
Feels Like 86 °F
N
0.0
Wind Variable Wind from SW
Gusts 1.0 mph

Today
High -- | Low -- °F
--% Chance of Precip.
Yesterday
High -- | Low -- °F
Precip. -- in
6:01 AM 8:07 PM
Full, 100% visible
Pressure 29.90 in
Visibility 10.0 miles
Clouds Mostly Cloudy 13000 ft
Overcast 20000 ft
Heat Index 86 °F
Dew Point 53 °F
Humidity 29%
Rainfall 0.00 in
Snow Depth Not available.
UV 0 out of 12
Pollen 5.20 out of 12
Air Quality Not available.
Flu Activity Not available.
METAR KFAT 310253Z 00000KT 10SM BKN130 OVC200 34/15 A2991 RMK AO2 SLP123 MTNS OBSC FU HZ DSNT N-E-SE T03390150 53006

More Conditions Fewer Conditions

Pressure 29.90 in
Visibility 10.0 miles
Clouds Mostly Cloudy 13000 ft
Overcast 20000 ft
Heat Index 86 °F
Dew Point 53 °F
Humidity 29%
Rainfall 0.00 in
Snow Depth Not available.
UV 0 out of 12
Pollen 5.20 out of 12
Air Quality Not available.
Flu Activity Not available.
METAR KFAT 310253Z 00000KT 10SM BKN130 OVC200 34/15 A2991 RMK AO2 SLP123 MTNS OBSC FU HZ DSNT N-E-SE T03390150 53006

More Conditions Fewer Conditions

10-Day Weather Forecast

×

Almanac

Astronomy

Jul. 30, 2015 Rise Set
Actual Time
Civil Twilight
Nautical Twilight
Astronomical Twilight
Moon
Length of Visible Light
Length of Day
Tomorrow will be .
, % of the Moon is Illuminated

Today's Extremes

State Highs State Lows

Community

WunderPhotos

Upload Photos

1,842,598 photos uploaded!

WunderBlogs® & News

Nearby

Air Quality

  Air Quality AQ Index Pollutant
Not available.

Snow Depth

Station Depth Elevation

Earthquake Activity

City Distance Mag. Time & Date
Minimum magnitude displayed is 2.5.

Coastal Water Temperatures

Place Temperature

Stations

Nearby Weather Stations

Station Location Temp. Windchill Dew Point Humidity Wind Precip. Elev Updated Type